Time;durP1;ratioP1;P1;durP2;ratioP2;P2;SDS_P1;SDS_P2;PMS_P1;PMS_P2;Temp;Humidity;BMP_temperature;BMP_pressure;BME280_temperature;BME280_humidity;BME280_pressure;Samples;Min_cycle;Max_cycle;Signal;HPM_P1;HPM_P2
2022/10/12 00:01:34;;;;;;;;;15.33;15.00;;;;;12.51;88.81;101612.28;4856261;29;45855;-83
2022/10/12 00:03:59;;;;;;;;;14.33;12.00;;;;;12.50;89.29;101615.84;4855799;29;45177;-83
2022/10/12 00:06:24;;;;;;;;;16.00;14.00;;;;;12.48;89.19;101616.66;4856562;29;45390;-83
2022/10/12 00:08:53;;;;;;;;;18.67;16.00;;;;;12.45;89.22;101620.16;4871476;29;47370;-83
2022/10/12 00:11:26;;;;;;;;;15.00;12.00;;;;;12.48;89.13;101620.25;4873316;29;45454;-83
2022/10/12 00:13:53;;;;;;;;;19.00;17.67;;;;;12.49;89.52;101618.47;4874410;29;45353;-83
2022/10/12 00:16:21;;;;;;;;;15.00;14.00;;;;;12.46;89.77;101619.28;4875857;29;45403;-83
2022/10/12 00:18:54;;;;;;;;;15.00;13.00;;;;;12.46;89.83;101615.72;4858862;29;46839;-83
2022/10/12 00:21:21;;;;;;;;;20.33;16.67;;;;;12.41;89.67;101615.66;4873103;29;45424;-82
2022/10/12 00:23:47;;;;;;;;;16.33;13.33;;;;;12.38;90.42;101616.50;4856324;29;45382;-83
2022/10/12 00:26:16;;;;;;;;;17.67;16.00;;;;;12.35;90.47;101619.06;4857456;29;45344;-83
2022/10/12 00:28:41;;;;;;;;;11.67;11.00;;;;;12.36;90.61;101619.97;4857497;29;46546;-83
2022/10/12 00:31:09;;;;;;;;;13.33;12.67;;;;;12.35;91.00;101620.84;4857832;29;45314;-83
2022/10/12 00:33:37;;;;;;;;;13.00;13.00;;;;;12.31;91.10;101619.00;4864368;29;45408;-83
2022/10/12 00:36:19;;;;;;;;;15.00;13.67;;;;;12.27;91.36;101615.34;4874004;29;45588;-82
2022/10/12 00:38:46;;;;;;;;;17.67;16.00;;;;;12.23;91.34;101615.25;4875311;29;45371;-82
2022/10/12 00:41:13;;;;;;;;;15.33;12.33;;;;;12.24;91.64;101619.72;4876379;29;45440;-82
2022/10/12 00:43:40;;;;;;;;;17.33;15.33;;;;;12.19;91.80;101615.19;4876276;29;45272;-83
2022/10/12 00:46:24;;;;;;;;;18.00;18.00;;;;;12.24;92.22;101614.38;4865157;29;45533;-83
2022/10/12 00:48:58;;;;;;;;;14.33;13.67;;;;;12.24;91.63;101622.38;4877039;28;45340;-83
2022/10/12 00:51:25;;;;;;;;;14.00;14.00;;;;;12.18;92.75;101610.72;4876112;29;45580;-83
2022/10/12 00:53:59;;;;;;;;;15.33;14.00;;;;;12.19;92.69;101616.97;4876219;29;44876;-83
2022/10/12 00:56:28;;;;;;;;;13.33;13.33;;;;;12.12;92.83;101610.59;4860004;29;45398;-82
2022/10/12 00:58:59;;;;;;;;;15.67;13.00;;;;;12.16;93.08;101620.47;4890587;29;47056;-82
2022/10/12 01:01:24;;;;;;;;;13.33;12.67;;;;;12.11;93.10;101610.56;4893734;29;45519;-82
2022/10/12 01:03:50;;;;;;;;;18.33;15.67;;;;;12.15;93.10;101612.44;4880423;29;45514;-82
2022/10/12 01:06:23;;;;;;;;;13.00;13.00;;;;;12.17;92.92;101616.03;4897343;29;45465;-82
2022/10/12 01:09:02;;;;;;;;;13.33;12.67;;;;;12.13;93.24;101607.06;4880143;29;47159;-83
2022/10/12 01:11:27;;;;;;;;;8.00;8.00;;;;;12.07;93.15;101601.59;4878502;29;45564;-83
2022/10/12 01:13:53;;;;;;;;;13.00;13.00;;;;;11.99;93.38;101598.75;4886056;29;44877;-83
2022/10/12 01:16:46;;;;;;;;;12.33;12.00;;;;;12.02;93.80;101605.94;4896332;29;45418;-83
2022/10/12 01:19:33;;;;;;;;;13.33;10.33;;;;;12.01;93.86;101604.13;4860573;29;47592;-83
2022/10/12 01:22:09;;;;;;;;;14.67;14.00;;;;;11.92;94.61;101604.81;4876214;29;45407;-83
2022/10/12 01:24:50;;;;;;;;;10.67;10.67;;;;;11.93;94.87;101601.28;4861516;29;45538;-83
2022/10/12 01:27:40;;;;;;;;;14.67;14.67;;;;;11.96;95.03;101604.03;4859589;29;45300;-83
2022/10/12 01:30:06;;;;;;;;;13.33;12.33;;;;;11.92;95.27;101602.16;4874452;29;46312;-83
2022/10/12 01:32:40;;;;;;;;;15.00;12.67;;;;;11.92;95.32;101606.59;4874691;29;45819;-83
2022/10/12 01:35:26;;;;;;;;;13.00;12.67;;;;;11.89;95.57;101619.84;4875507;29;45681;-83
2022/10/12 01:38:18;;;;;;;;;13.00;13.00;;;;;11.88;95.71;101607.38;4874002;29;45395;-83
2022/10/12 01:40:46;;;;;;;;;11.33;11.33;;;;;11.81;96.01;101600.97;4874712;29;48275;-83
2022/10/12 01:43:16;;;;;;;;;12.00;12.00;;;;;11.84;95.95;101605.50;4874964;29;45411;-83
2022/10/12 01:45:42;;;;;;;;;13.00;10.00;;;;;11.75;97.11;101598.16;4874545;29;45475;-83
2022/10/12 01:48:08;;;;;;;;;13.67;12.00;;;;;11.75;97.16;101601.72;4858349;29;45495;-83
2022/10/12 01:50:52;;;;;;;;;11.00;10.33;;;;;11.69;97.13;101604.25;4858719;29;49154;-83
2022/10/12 01:53:41;;;;;;;;;14.67;10.00;;;;;11.70;97.36;101598.06;4874156;29;45445;-82
2022/10/12 01:56:36;;;;;;;;;11.67;11.00;;;;;11.76;97.52;101606.22;4871670;29;45376;-84
2022/10/12 01:59:39;;;;;;;;;11.00;9.00;;;;;11.76;97.46;101608.88;4839356;29;45446;-83
2022/10/12 02:02:16;;;;;;;;;16.33;12.00;;;;;11.76;97.81;101608.88;4856587;29;45445;-83
2022/10/12 02:04:57;;;;;;;;;12.67;10.67;;;;;11.70;97.75;101592.75;4855696;29;45338;-83
2022/10/12 02:07:29;;;;;;;;;9.67;9.67;;;;;11.74;97.50;101599.94;4857889;29;45539;-83
2022/10/12 02:09:57;;;;;;;;;15.00;13.33;;;;;11.70;97.67;101598.06;4858400;29;45589;-84
2022/10/12 02:12:25;;;;;;;;;12.33;11.00;;;;;11.62;97.94;101583.69;4857671;29;45498;-83
2022/10/12 02:15:00;;;;;;;;;10.00;9.67;;;;;11.62;98.66;101583.69;4847673;29;45842;-84
2022/10/12 02:17:26;;;;;;;;;10.00;10.00;;;;;11.57;98.41;101585.31;4840935;29;44783;-83
2022/10/12 02:20:00;;;;;;;;;14.33;12.00;;;;;11.58;98.48;101587.13;4842924;29;44972;-84
2022/10/12 02:22:33;;;;;;;;;12.33;11.00;;;;;11.55;98.57;101582.63;4838180;29;45280;-83
2022/10/12 02:25:03;;;;;;;;;15.00;13.00;;;;;11.52;98.63;101579.00;4838580;29;45424;-83
2022/10/12 02:27:30;;;;;;;;;12.33;12.33;;;;;11.54;98.27;101585.25;4838751;29;45544;-84
2022/10/12 02:29:56;;;;;;;;;10.67;10.67;;;;;11.48;98.64;101579.78;4838250;29;45447;-83
2022/10/12 02:32:51;;;;;;;;;13.00;11.67;;;;;11.47;99.21;101576.19;4840245;29;46827;-83
2022/10/12 02:35:21;;;;;;;;;12.00;9.33;;;;;11.47;99.11;101573.53;4848320;29;45978;-83
2022/10/12 02:37:53;;;;;;;;;13.67;11.33;;;;;11.43;99.23;101562.78;4893794;29;45453;-83
2022/10/12 02:40:37;;;;;;;;;12.00;12.00;;;;;11.44;99.35;101567.25;4893507;29;44867;-83
2022/10/12 02:43:18;;;;;;;;;11.33;11.00;;;;;11.43;99.27;101562.78;4891103;29;47933;-83
2022/10/12 02:45:46;;;;;;;;;14.00;12.67;;;;;11.32;99.55;101552.78;4908034;29;45507;-83
2022/10/12 02:48:17;;;;;;;;;16.00;13.00;;;;;11.30;99.75;101550.94;4876483;29;45517;-82
2022/10/12 02:50:43;;;;;;;;;12.33;12.00;;;;;11.28;99.92;101558.88;4876826;29;45410;-83
2022/10/12 02:53:09;;;;;;;;;13.67;13.67;;;;;11.32;100.00;101563.44;4881104;29;47061;-83
2022/10/12 02:58:57;;;;;;;;;11.67;11.00;;;;;11.29;99.95;101552.72;4893415;29;44880;-83
2022/10/12 03:01:22;;;;;;;;;13.67;12.00;;;;;11.30;100.00;101554.50;4893423;29;45436;-83
2022/10/12 03:03:47;;;;;;;;;15.67;13.00;;;;;11.28;100.00;101550.91;4896711;29;45306;-83
2022/10/12 03:06:13;;;;;;;;;8.67;8.67;;;;;11.30;100.00;101554.50;4895081;29;45247;-82
2022/10/12 03:08:38;;;;;;;;;14.00;13.00;;;;;11.29;100.00;101551.78;4893299;29;45333;-83
2022/10/12 03:11:06;;;;;;;;;16.33;13.33;;;;;11.27;100.00;101542.88;4893867;29;45866;-83
2022/10/12 03:13:32;;;;;;;;;15.33;14.00;;;;;11.29;100.00;101550.06;4894498;29;45322;-83
2022/10/12 03:16:03;;;;;;;;;11.67;11.67;;;;;11.26;100.00;101552.63;4877088;29;45468;-83
2022/10/12 03:18:29;;;;;;;;;12.00;12.00;;;;;11.19;100.00;101540.03;4894421;28;45354;-83
2022/10/12 03:20:54;;;;;;;;;16.33;11.67;;;;;11.22;100.00;101545.44;4877619;29;45639;-84
2022/10/12 03:23:20;;;;;;;;;12.00;12.00;;;;;11.24;100.00;101549.03;4877929;29;45541;-84
2022/10/12 03:25:45;;;;;;;;;15.33;13.67;;;;;11.23;100.00;101552.56;4895868;29;44801;-83
2022/10/12 03:28:11;;;;;;;;;15.67;12.67;;;;;11.19;100.00;101545.38;4883868;29;45459;-84
2022/10/12 03:30:36;;;;;;;;;12.33;12.33;;;;;11.21;100.00;101544.53;4879279;29;45562;-83
2022/10/12 03:39:46;;;;;;;;;11.00;11.00;;;;;11.12;100.00;101540.75;4877214;28;45715;-83
2022/10/12 03:42:11;;;;;;;;;12.33;12.33;;;;;11.13;100.00;101543.44;4875821;29;44879;-83
2022/10/12 03:44:37;;;;;;;;;13.00;13.00;;;;;11.14;100.00;101552.34;4876343;29;45067;-83
2022/10/12 03:47:02;;;;;;;;;17.67;12.67;;;;;11.20;100.00;101547.16;4876087;28;45353;-83
2022/10/12 03:49:27;;;;;;;;;12.67;11.00;;;;;11.19;100.00;101548.94;4859275;29;44884;-83
2022/10/12 03:51:53;;;;;;;;;11.33;9.67;;;;;11.10;100.00;101534.47;4874943;29;45595;-83
2022/10/12 03:54:18;;;;;;;;;11.33;11.00;;;;;11.11;100.00;101549.56;4874996;29;46621;-83
2022/10/12 03:56:47;;;;;;;;;11.33;11.00;;;;;11.16;100.00;101550.59;4861890;29;45828;-83
2022/10/12 03:59:12;;;;;;;;;7.33;6.33;;;;;11.16;100.00;101553.28;4875747;29;45396;-83
2022/10/12 04:01:38;;;;;;;;;11.67;10.00;;;;;11.10;100.00;101550.47;4875246;29;44917;-83
2022/10/12 04:04:03;;;;;;;;;11.33;10.33;;;;;11.07;100.00;101542.38;4875713;29;45390;-83
2022/10/12 04:06:29;;;;;;;;;14.00;10.67;;;;;11.10;100.00;101545.13;4889628;29;44838;-83
2022/10/12 04:08:54;;;;;;;;;11.33;11.33;;;;;11.10;100.00;101547.78;4874842;29;45326;-82
2022/10/12 04:11:20;;;;;;;;;13.67;12.00;;;;;11.08;100.00;101549.53;4859724;29;45222;-82
2022/10/12 04:13:45;;;;;;;;;10.00;10.00;;;;;11.14;100.00;101560.31;4890203;29;46603;-82
2022/10/12 04:16:11;;;;;;;;;11.33;11.33;;;;;11.08;100.00;101557.50;4875790;29;45461;-83
2022/10/12 04:18:36;;;;;;;;;12.00;11.00;;;;;11.05;100.00;101565.41;4874362;29;45807;-83
2022/10/12 04:21:07;;;;;;;;;12.33;10.00;;;;;11.01;100.00;101557.34;4872953;29;45597;-84
2022/10/12 04:23:33;;;;;;;;;9.67;9.67;;;;;10.95;100.00;101564.28;4856899;29;47022;-83
2022/10/12 04:25:58;;;;;;;;;11.00;11.00;;;;;10.81;100.00;101547.97;4857144;29;45528;-83
2022/10/12 04:28:23;;;;;;;;;10.00;10.00;;;;;10.95;100.00;101578.50;4874400;29;45843;-83
2022/10/12 04:30:49;;;;;;;;;9.67;9.67;;;;;10.94;100.00;101576.66;4872537;29;45431;-83
2022/10/12 04:33:14;;;;;;;;;11.67;11.00;;;;;10.90;100.00;101561.50;4872979;29;46365;-83
2022/10/12 04:35:41;;;;;;;;;5.67;4.33;;;;;10.92;100.00;101573.06;4875434;29;45351;-83
2022/10/12 04:38:07;;;;;;;;;11.67;10.00;;;;;10.90;100.00;101574.78;4883958;29;45414;-83
2022/10/12 04:40:32;;;;;;;;;10.00;6.00;;;;;10.91;100.00;101571.28;4876960;29;45345;-83
2022/10/12 04:42:58;;;;;;;;;10.00;8.33;;;;;10.91;100.00;101560.66;4876121;29;45432;-84
2022/10/12 04:45:23;;;;;;;;;12.00;11.00;;;;;10.90;100.00;101564.16;4874459;29;45319;-83
2022/10/12 04:47:48;;;;;;;;;9.00;9.00;;;;;10.88;100.00;101562.31;4858139;29;45350;-83
2022/10/12 04:50:14;;;;;;;;;12.00;10.00;;;;;10.84;100.00;101553.34;4871247;29;45517;-83
2022/10/12 04:52:40;;;;;;;;;11.00;10.00;;;;;10.87;100.00;101566.75;4874698;29;46934;-83
2022/10/12 04:55:06;;;;;;;;;12.33;11.00;;;;;10.76;100.00;101561.13;4875814;29;45831;-82
2022/10/12 04:57:31;;;;;;;;;11.67;11.00;;;;;10.73;100.00;101554.84;4888729;29;45483;-82
2022/10/12 04:59:57;;;;;;;;;10.00;9.67;;;;;10.65;100.00;101551.09;4882948;29;45522;-83
2022/10/12 05:02:22;;;;;;;;;11.00;11.00;;;;;10.63;100.00;101553.69;4878125;29;47323;-83
2022/10/12 05:04:48;;;;;;;;;15.00;13.00;;;;;10.59;100.00;101550.03;4876783;29;45266;-82
2022/10/12 05:07:13;;;;;;;;;14.33;11.00;;;;;10.55;100.00;101542.84;4860364;29;45462;-82
2022/10/12 05:09:41;;;;;;;;;16.33;12.33;;;;;10.58;100.00;101550.00;4860065;29;44930;-82
2022/10/12 05:12:07;;;;;;;;;11.67;10.00;;;;;10.57;100.00;101550.88;4876993;29;45632;-83
2022/10/12 05:14:32;;;;;;;;;11.00;11.00;;;;;10.55;100.00;101558.78;4875013;29;45384;-82
2022/10/12 05:16:58;;;;;;;;;15.00;11.33;;;;;10.56;100.00;101559.69;4877085;29;45388;-82
2022/10/12 05:19:23;;;;;;;;;12.67;11.00;;;;;10.56;100.00;101560.63;4860546;29;45441;-82
2022/10/12 05:21:49;;;;;;;;;10.33;10.33;;;;;10.52;100.00;101556.06;4859202;29;46983;-83
2022/10/12 05:24:14;;;;;;;;;10.67;10.00;;;;;10.52;100.00;101561.41;4860296;29;44799;-83
2022/10/12 05:26:40;;;;;;;;;13.67;13.67;;;;;10.53;100.00;101557.84;4860099;29;45601;-83
2022/10/12 05:29:05;;;;;;;;;10.67;10.67;;;;;10.53;100.00;101557.84;4860047;29;45467;-83
2022/10/12 05:31:31;;;;;;;;;11.00;11.00;;;;;10.52;100.00;101565.78;4876441;29;46372;-83
2022/10/12 05:33:56;;;;;;;;;11.67;10.00;;;;;10.45;100.00;101567.38;4859226;29;45471;-82
2022/10/12 05:36:22;;;;;;;;;12.67;12.67;;;;;10.44;100.00;101562.91;4877351;29;45530;-82
2022/10/12 05:38:47;;;;;;;;;10.00;10.00;;;;;10.45;100.00;101563.84;4874773;29;45453;-83
2022/10/12 05:41:14;;;;;;;;;10.00;10.00;;;;;10.44;100.00;101562.91;4876571;29;45375;-82
2022/10/12 05:43:39;;;;;;;;;12.00;10.33;;;;;10.39;100.00;101552.16;4876807;29;45388;-83
2022/10/12 05:46:05;;;;;;;;;16.67;13.00;;;;;10.42;100.00;101548.66;4876588;29;44782;-83
2022/10/12 05:48:32;;;;;;;;;13.67;12.00;;;;;10.49;100.00;101561.28;4877545;29;45391;-83
2022/10/12 05:50:57;;;;;;;;;11.33;10.00;;;;;10.35;100.00;101531.66;4862115;29;46698;-83
2022/10/12 05:53:23;;;;;;;;;13.00;11.00;;;;;10.46;100.00;101547.91;4861103;29;44844;-83
2022/10/12 05:55:57;;;;;;;;;9.67;9.67;;;;;10.51;100.00;101559.56;4878351;29;45358;-83
2022/10/12 05:58:25;;;;;;;;;15.00;12.00;;;;;10.49;100.00;101550.66;4880691;29;44936;-83
2022/10/12 06:00:51;;;;;;;;;13.67;11.33;;;;;10.54;100.00;101564.06;4880927;29;46739;-84
2022/10/12 06:03:16;;;;;;;;;11.67;11.67;;;;;10.36;100.00;101532.53;4882329;29;45502;-85
2022/10/12 06:05:42;;;;;;;;;13.33;12.00;;;;;10.40;100.00;101542.41;4868451;29;44821;-84
2022/10/12 06:08:08;;;;;;;;;13.33;13.33;;;;;10.40;100.00;101550.38;4883573;29;45445;-85
2022/10/12 06:10:35;;;;;;;;;13.33;12.67;;;;;10.49;100.00;101558.63;4879221;29;47172;-84
2022/10/12 06:13:01;;;;;;;;;12.67;11.67;;;;;10.56;100.00;101565.94;4864470;29;45476;-84
2022/10/12 06:15:27;;;;;;;;;12.67;12.33;;;;;10.47;100.00;101549.72;4864324;29;45554;-84
2022/10/12 06:17:52;;;;;;;;;12.67;11.67;;;;;10.40;100.00;101535.34;4876385;29;44810;-83
2022/10/12 06:20:18;;;;;;;;;4.67;4.67;;;;;10.37;100.00;101537.03;4882998;28;46595;-84
2022/10/12 06:22:43;;;;;;;;;13.33;13.33;;;;;10.55;100.00;101572.09;4866281;29;45025;-84
2022/10/12 06:25:10;;;;;;;;;17.33;15.33;;;;;10.56;100.00;101573.91;4867896;28;44727;-84
2022/10/12 06:27:36;;;;;;;;;17.00;16.00;;;;;10.51;100.00;101579.97;4885610;29;44750;-83
2022/10/12 06:30:02;;;;;;;;;12.67;12.00;;;;;10.37;100.00;101551.22;4866773;28;47724;-83
2022/10/12 06:32:28;;;;;;;;;12.00;12.00;;;;;10.59;100.00;101589.06;4867826;28;44789;-82
2022/10/12 06:34:53;;;;;;;;;16.67;16.67;;;;;10.59;100.00;101584.63;4884801;28;45412;-83
2022/10/12 06:37:19;;;;;;;;;15.67;15.67;;;;;10.55;100.00;101577.41;4867969;28;45570;-85
2022/10/12 06:39:45;;;;;;;;;17.67;16.33;;;;;10.54;100.00;101586.28;4882109;28;46829;-83
2022/10/12 06:42:10;;;;;;;;;17.33;15.67;;;;;10.49;100.00;101573.69;4868015;28;44762;-83
2022/10/12 06:44:36;;;;;;;;;14.67;14.67;;;;;10.59;100.00;101587.28;4882652;28;45474;-83
2022/10/12 06:47:02;;;;;;;;;16.00;16.00;;;;;10.68;100.00;101591.06;4884313;28;44785;-84
2022/10/12 06:49:32;;;;;;;;;17.00;16.67;;;;;10.77;100.00;101600.19;4882401;28;47630;-85
2022/10/12 06:51:57;;;;;;;;;18.33;17.33;;;;;10.86;100.00;101602.19;4897222;29;44948;-85
2022/10/12 06:54:22;;;;;;;;;17.00;16.00;;;;;10.96;100.00;101600.66;4901056;28;45464;-85
2022/10/12 06:56:49;;;;;;;;;17.00;16.00;;;;;10.99;100.00;101599.00;4894202;29;44893;-84
2022/10/12 06:59:18;;;;;;;;;16.67;15.67;;;;;11.08;100.00;101603.66;4881657;29;46636;-85
2022/10/12 07:01:46;;;;;;;;;20.33;16.00;;;;;11.13;100.00;101598.44;4884854;28;44876;-85
2022/10/12 07:04:12;;;;;;;;;22.33;20.67;;;;;11.13;100.00;101596.69;4900896;28;45537;-85
2022/10/12 07:06:47;;;;;;;;;15.67;14.00;;;;;11.21;100.00;101597.78;4883453;29;44845;-85
2022/10/12 07:09:16;;;;;;;;;19.00;19.00;;;;;11.13;100.00;101582.47;4884241;29;47002;-86
2022/10/12 07:11:41;;;;;;;;;22.00;18.33;;;;;11.31;100.00;101604.25;4896836;29;45406;-84
2022/10/12 07:14:07;;;;;;;;;20.67;18.33;;;;;11.12;100.00;101570.03;4883467;29;45519;-83
2022/10/12 07:16:35;;;;;;;;;4.33;1.67;;;;;11.43;100.00;101608.94;4898639;29;45336;-83
2022/10/12 07:22:26;;;;;;;;;22.00;19.67;;;;;11.56;100.00;101623.50;4896003;29;45435;-85
2022/10/12 07:25:50;;;;;;;;;;;;;;;;;;;;;
2022/10/12 07:28:37;;;;;;;;;20.67;19.00;;;;;11.23;100.00;101588.94;4896873;29;65231;-84
2022/10/12 07:31:32;;;;;;;;;25.00;21.00;;;;;11.40;100.00;101620.44;4894607;29;45460;-85
2022/10/12 07:34:00;;;;;;;;;23.00;21.33;;;;;11.10;100.00;101567.31;4902521;29;45536;-85
2022/10/12 07:36:26;;;;;;;;;20.67;20.00;;;;;11.23;100.00;101600.50;4915409;28;45581;-84
2022/10/12 07:39:06;;;;;;;;;;;;;;;;;;;;;
2022/10/12 07:41:38;;;;;;;;;19.00;19.00;;;;;11.23;100.00;101605.81;4898514;29;73585;-83
2022/10/12 07:44:05;;;;;;;;;20.33;18.67;;;;;11.28;100.00;101604.16;4866649;28;45419;-85
2022/10/12 07:50:36;;;;;;;;;22.00;19.67;;;;;11.47;100.00;101631.25;4879164;29;44884;-87
2022/10/12 07:53:04;;;;;;;;;26.67;21.67;;;;;11.54;100.00;101634.09;4888500;29;45876;-85
2022/10/12 07:56:14;;;;;;;;;22.33;21.00;;;;;11.60;100.00;101638.69;4896549;29;45462;-85
2022/10/12 07:58:50;;;;;;;;;21.00;21.00;;;;;11.52;100.00;101625.19;4897814;29;44846;-86
2022/10/12 08:01:18;;;;;;;;;24.33;23.00;;;;;11.52;100.00;101614.53;4865689;29;45322;-86
2022/10/12 08:03:58;;;;;;;;;;;;;;;;;;;;;
2022/10/12 08:25:49;;;;;;;;;;;;;;;;;;;;;
2022/10/12 08:28:49;;;;;;;;;27.00;24.00;;;;;12.43;100.00;101645.91;4853950;29;71944;-86
2022/10/12 08:32:06;;;;;;;;;;;;;;;;;;;;;
2022/10/12 08:35:29;;;;;;;;;;;;;;;;;;;;;
2022/10/12 08:52:43;;;;;;;;;;;;;;;;;;;;;
2022/10/12 08:56:21;;;;;;;;;;;;;;;;;;;;;
2022/10/12 11:39:52;;;;;;;;;;;;;;;;;;;;;
2022/10/12 11:46:02;;;;;;;;;16.67;15.67;;;;;19.67;84.18;101486.75;4869174;29;45478;-85
2022/10/12 11:52:50;;;;;;;;;13.33;12.67;;;;;20.34;83.24;101515.63;4879534;29;45451;-85
2022/10/12 12:00:02;;;;;;;;;;;;;;;;;;;;;
2022/10/12 12:03:18;;;;;;;;;;;;;;;;;;;;;
2022/10/12 12:13:18;;;;;;;;;11.00;11.00;;;;;20.42;81.10;101488.50;4771635;29;45237;-87
2022/10/12 12:16:59;;;;;;;;;15.00;13.67;;;;;20.21;80.95;101454.56;4773436;29;45371;-86
2022/10/12 12:20:32;;;;;;;;;;;;;;;;;;;;;
2022/10/12 12:34:40;;;;;;;;;15.33;13.33;;;;;19.69;81.81;101464.25;4732245;30;45056;-86
2022/10/12 12:38:05;;;;;;;;;;;;;;;;;;;;;
2022/10/12 13:36:48;;;;;;;;;;;;;;;;;;;;;
2022/10/12 13:39:56;;;;;;;;;8.33;8.33;;;;;20.01;76.99;101416.16;4716379;30;71972;-85
2022/10/12 13:42:52;;;;;;;;;9.00;8.00;;;;;20.24;76.79;101456.31;4687081;30;45386;-85
2022/10/12 13:45:29;;;;;;;;;8.67;8.67;;;;;20.12;75.65;101444.81;4686575;30;44799;-86
2022/10/12 13:59:11;;;;;;;;;;;;;;;;;;;;;
2022/10/12 14:21:27;;;;;;;;;;;;;;;;;;;;;
2022/10/12 14:24:38;;;;;;;;;9.00;8.00;;;;;20.02;76.09;101432.34;4787559;29;67955;-86
2022/10/12 14:28:17;;;;;;;;;;;;;;;;;;;;;
2022/10/12 15:32:01;;;;;;;;;;;;;;;;;;;;;
2022/10/12 15:35:06;;;;;;;;;;;;;;;;;;;;;
2022/10/12 15:38:13;;;;;;;;;9.00;8.33;;;;;19.91;74.24;101366.81;4844043;29;45382;-85
2022/10/12 15:41:35;;;;;;;;;;;;;;;;;;;;;
2022/10/12 15:47:53;;;;;;;;;8.67;8.67;;;;;19.39;75.17;101334.19;4823603;29;45609;-85
2022/10/12 15:50:45;;;;;;;;;7.00;7.00;;;;;19.48;75.23;101359.28;4808459;29;45376;-84
2022/10/12 15:53:59;;;;;;;;;11.67;11.67;;;;;19.45;75.26;101356.59;4815134;29;45902;-85
2022/10/12 15:56:43;;;;;;;;;10.33;8.67;;;;;19.36;75.43;101355.81;4788470;29;44934;-84
2022/10/12 15:59:19;;;;;;;;;11.00;10.00;;;;;19.23;75.32;101338.00;4788766;29;46939;-86
2022/10/12 16:09:41;;;;;;;;;7.00;6.00;;;;;19.06;75.37;101321.13;5025133;23;46871;-85
2022/10/12 16:12:07;;;;;;;;;9.33;9.33;;;;;18.89;75.00;101297.06;4810530;29;45384;-84
2022/10/12 16:15:40;;;;;;;;;12.00;10.00;;;;;19.09;75.92;101334.59;4826238;29;44756;-86
2022/10/12 16:18:19;;;;;;;;;10.33;10.33;;;;;18.96;75.76;101323.91;4735490;30;44929;-85
2022/10/12 16:20:48;;;;;;;;;10.00;10.00;;;;;19.03;75.37;101340.03;4737306;30;45203;-84
2022/10/12 16:23:40;;;;;;;;;7.50;7.50;;;;;18.83;75.57;101316.00;4751966;29;45417;-84
2022/10/12 16:26:13;;;;;;;;;9.00;9.00;;;;;18.68;75.82;101303.53;4752060;30;44810;-84
2022/10/12 16:28:46;;;;;;;;;8.00;8.00;;;;;18.72;75.49;101313.38;4750251;30;44967;-84
2022/10/12 16:31:36;;;;;;;;;10.33;9.00;;;;;18.62;75.72;101298.22;4752878;30;46062;-84
2022/10/12 16:34:31;;;;;;;;;10.67;10.67;;;;;18.78;76.06;101349.25;4702203;30;44875;-84
2022/10/12 16:37:02;;;;;;;;;9.00;9.00;;;;;18.71;75.81;101349.31;4700646;30;44869;-85
2022/10/12 16:39:28;;;;;;;;;14.33;10.00;;;;;18.69;76.13;101353.84;4713943;30;44727;-84
2022/10/12 16:41:54;;;;;;;;;11.00;11.00;;;;;18.56;76.44;101350.34;4702857;30;45833;-85
2022/10/12 16:44:20;;;;;;;;;11.67;11.67;;;;;18.50;76.45;101350.41;4718166;30;45332;-84
2022/10/12 16:46:52;;;;;;;;;12.67;12.67;;;;;18.32;77.15;101338.91;4717814;29;45409;-84
2022/10/12 16:49:21;;;;;;;;;12.67;12.67;;;;;18.31;77.38;101360.44;4704022;30;45484;-84
2022/10/12 16:52:07;;;;;;;;;;;;;;;;;;;;;
2022/10/12 16:54:36;;;;;;;;;13.00;13.00;;;;;18.11;78.57;101347.13;4783045;29;71418;-84
2022/10/12 16:57:02;;;;;;;;;13.33;13.00;;;;;18.11;78.98;101356.09;4814179;29;45351;-83
2022/10/12 16:59:30;;;;;;;;;17.00;17.00;;;;;18.00;79.46;101347.22;4826339;29;44720;-84
2022/10/12 17:01:55;;;;;;;;;15.67;15.67;;;;;17.99;80.16;101354.38;4809266;29;46681;-85
2022/10/12 17:04:33;;;;;;;;;15.67;12.33;;;;;17.75;80.57;101320.44;4795472;29;44879;-85
2022/10/12 17:07:06;;;;;;;;;14.33;13.00;;;;;17.91;81.04;101355.34;4810244;29;45000;-85
2022/10/12 17:09:34;;;;;;;;;12.67;12.67;;;;;17.84;81.30;101359.88;4765332;29;44833;-84
2022/10/12 17:12:06;;;;;;;;;14.33;12.33;;;;;17.54;81.79;101328.63;4819985;29;45422;-85
2022/10/12 17:14:35;;;;;;;;;13.33;13.33;;;;;17.70;82.25;101372.50;4814023;29;44860;-85
2022/10/12 17:17:02;;;;;;;;;16.00;13.33;;;;;17.48;82.92;101344.81;4833145;29;44736;-84
2022/10/12 17:19:29;;;;;;;;;13.00;13.00;;;;;17.58;83.01;101368.06;4811972;29;45271;-84
2022/10/12 17:21:58;;;;;;;;;16.67;16.67;;;;;17.54;83.69;101371.66;4827057;29;46369;-85
2022/10/12 17:24:26;;;;;;;;;15.33;14.00;;;;;17.42;83.31;101353.78;4826304;29;45605;-84
2022/10/12 17:26:52;;;;;;;;;15.33;15.33;;;;;17.44;84.77;101364.53;4827907;29;44753;-86
2022/10/12 17:29:19;;;;;;;;;16.00;16.00;;;;;17.15;84.38;101323.44;4823435;29;45646;-85
2022/10/12 17:31:46;;;;;;;;;15.33;15.33;;;;;17.32;84.92;101363.69;4838224;29;46900;-83
2022/10/12 17:34:26;;;;;;;;;16.00;15.33;;;;;17.28;84.88;101367.28;4809187;29;44773;-82
2022/10/12 17:36:54;;;;;;;;;14.67;13.33;;;;;17.27;85.15;101380.72;4823497;29;44823;-84
2022/10/12 17:39:20;;;;;;;;;12.67;12.67;;;;;17.14;85.38;101361.06;4821426;29;44811;-84
2022/10/12 17:42:29;;;;;;;;;18.67;16.67;;;;;17.19;85.48;101375.41;4806263;29;44915;-84
2022/10/12 17:44:55;;;;;;;;;18.67;16.00;;;;;16.98;85.91;101341.41;4821063;29;45769;-84
2022/10/12 17:47:20;;;;;;;;;20.00;17.67;;;;;16.97;86.73;101359.31;4823379;29;45489;-84
2022/10/12 17:49:46;;;;;;;;;13.67;12.33;;;;;16.99;86.69;101365.56;4807616;29;45372;-84
2022/10/12 17:52:11;;;;;;;;;17.00;16.33;;;;;17.03;86.66;101365.56;4835585;29;47736;-84
2022/10/12 17:54:37;;;;;;;;;15.00;13.33;;;;;17.03;86.78;101379.00;4821407;29;45437;-85
2022/10/12 17:57:03;;;;;;;;;16.33;14.67;;;;;16.98;87.29;101377.22;4805245;29;45340;-84
2022/10/12 17:59:29;;;;;;;;;17.00;16.00;;;;;16.89;87.59;101355.75;4806232;29;45311;-84
2022/10/12 18:01:54;;;;;;;;;15.33;14.33;;;;;16.92;87.30;101360.22;4791641;29;46761;-85
2022/10/12 18:04:20;;;;;;;;;12.00;12.00;;;;;16.90;87.48;101368.28;4806554;29;45859;-85
2022/10/12 18:10:08;;;;;;;;;15.33;15.00;;;;;16.83;87.99;101374.56;4822398;29;45596;-85
2022/10/12 18:12:34;;;;;;;;;14.67;13.33;;;;;16.75;88.53;101363.81;4825213;29;45676;-85
2022/10/12 18:15:00;;;;;;;;;15.00;15.00;;;;;16.75;88.52;101376.34;4824761;29;45369;-84
2022/10/12 18:17:25;;;;;;;;;18.67;17.00;;;;;16.66;89.21;101373.66;4809657;29;45377;-85
2022/10/12 18:19:51;;;;;;;;;15.67;14.67;;;;;16.65;89.23;101385.31;4823914;29;44902;-85
2022/10/12 18:22:17;;;;;;;;;13.33;12.33;;;;;16.65;89.67;101393.38;4824143;29;45387;-85
2022/10/12 18:24:43;;;;;;;;;15.33;13.33;;;;;16.60;89.90;101382.59;4824269;29;45407;-84
2022/10/12 18:27:08;;;;;;;;;18.33;17.00;;;;;16.59;90.00;101391.56;4808452;29;45510;-85
2022/10/12 18:29:34;;;;;;;;;18.33;16.67;;;;;16.55;90.17;101370.97;4824464;29;45465;-85
2022/10/12 18:32:00;;;;;;;;;15.67;15.67;;;;;16.59;90.41;101379.03;4823837;29;45318;-85
2022/10/12 18:34:26;;;;;;;;;14.00;14.00;;;;;16.56;90.46;101379.06;4791476;29;45407;-85
2022/10/12 18:36:52;;;;;;;;;16.00;14.67;;;;;16.55;90.86;101377.25;4824259;29;45433;-85
2022/10/12 18:39:18;;;;;;;;;16.00;16.00;;;;;16.60;91.13;101385.28;4823471;29;44755;-85
2022/10/12 18:41:43;;;;;;;;;16.67;16.00;;;;;16.62;90.83;101386.19;4792282;29;45320;-85
2022/10/12 18:44:09;;;;;;;;;18.00;15.33;;;;;16.67;90.94;101383.50;4808187;29;45427;-83
2022/10/12 18:46:36;;;;;;;;;19.00;18.00;;;;;16.70;90.92;101384.38;4823094;29;45457;-84
2022/10/12 18:49:07;;;;;;;;;18.00;16.67;;;;;16.71;90.63;101378.13;4813470;29;45462;-84